Time;durP1;ratioP1;P1;durP2;ratioP2;P2;SDS_P1;SDS_P2;PMS_P1;PMS_P2;Temp;Humidity;BMP_temperature;BMP_pressure;BME280_temperature;BME280_humidity;BME280_pressure;Samples;Min_cycle;Max_cycle;Signal;HPM_P1;HPM_P2
2021/05/14 00:00:19;;;;;;;5.20;4.10;;;25.30;47.50;;;;;;6166541;28;80810;-69
2021/05/14 00:03:19;;;;;;;4.22;3.83;;;25.30;47.60;;;;;;6169270;28;83083;-70
2021/05/14 00:06:20;;;;;;;7.03;4.88;;;25.30;47.50;;;;;;6165777;28;80642;-69
2021/05/14 00:09:20;;;;;;;4.97;4.22;;;25.30;47.50;;;;;;6170795;28;80483;-69
2021/05/14 00:12:21;;;;;;;7.72;4.10;;;25.30;47.30;;;;;;6175840;28;80923;-70
2021/05/14 00:15:21;;;;;;;6.90;4.25;;;25.30;47.60;;;;;;6178235;28;80425;-70
2021/05/14 00:18:22;;;;;;;5.28;4.00;;;25.30;47.40;;;;;;6170977;28;82038;-69
2021/05/14 00:21:22;;;;;;;4.32;3.63;;;25.30;47.20;;;;;;6172314;28;80558;-70
2021/05/14 00:24:23;;;;;;;5.18;4.05;;;25.30;47.50;;;;;;6170664;28;80434;-70
2021/05/14 00:27:23;;;;;;;4.70;3.90;;;25.30;47.10;;;;;;6175209;28;83288;-70
2021/05/14 00:30:24;;;;;;;5.05;4.10;;;25.30;47.40;;;;;;6172335;28;83946;-69
2021/05/14 00:33:25;;;;;;;4.53;4.07;;;25.30;46.70;;;;;;6171308;28;81641;-69
2021/05/14 00:36:25;;;;;;;5.45;3.85;;;25.30;46.60;;;;;;6172666;28;80532;-69
2021/05/14 00:39:26;;;;;;;4.93;3.60;;;25.30;46.70;;;;;;6170298;28;81187;-70
2021/05/14 00:42:27;;;;;;;4.63;4.10;;;25.30;46.50;;;;;;6176675;28;81943;-70
2021/05/14 00:45:27;;;;;;;4.05;3.63;;;25.30;46.30;;;;;;6165305;28;81182;-69
2021/05/14 00:48:28;;;;;;;4.85;3.70;;;25.30;46.80;;;;;;6171391;28;80573;-70
2021/05/14 00:51:28;;;;;;;5.18;3.67;;;25.30;47.00;;;;;;6176320;28;80404;-70
2021/05/14 00:54:29;;;;;;;4.82;3.30;;;25.30;47.00;;;;;;6171467;28;80348;-69
2021/05/14 00:57:30;;;;;;;5.07;3.58;;;25.30;46.70;;;;;;6167489;28;80079;-69
2021/05/14 01:00:30;;;;;;;3.60;2.95;;;25.30;46.70;;;;;;6176899;28;81501;-69
2021/05/14 01:03:31;;;;;;;5.82;3.97;;;25.30;46.70;;;;;;6168510;28;80556;-68
2021/05/14 01:06:31;;;;;;;3.50;3.00;;;25.30;46.90;;;;;;6170376;28;82876;-69
2021/05/14 01:09:32;;;;;;;7.07;3.90;;;25.30;46.40;;;;;;6175272;28;80221;-69
2021/05/14 01:12:32;;;;;;;5.28;3.40;;;25.30;47.00;;;;;;6173377;28;80457;-69
2021/05/14 01:15:33;;;;;;;4.25;3.85;;;25.30;46.40;;;;;;6176257;28;80386;-69
2021/05/14 01:18:34;;;;;;;5.60;3.70;;;25.30;46.40;;;;;;6174609;28;80363;-69
2021/05/14 01:21:34;;;;;;;4.10;3.30;;;25.30;46.50;;;;;;6177593;28;82135;-69
2021/05/14 01:24:35;;;;;;;5.30;3.83;;;25.30;46.40;;;;;;6178170;28;80816;-69
2021/05/14 01:27:35;;;;;;;4.13;3.25;;;25.30;46.50;;;;;;6168438;28;81586;-68
2021/05/14 01:30:36;;;;;;;5.38;4.00;;;25.30;46.20;;;;;;6173023;28;81285;-70
2021/05/14 01:33:36;;;;;;;4.32;3.30;;;25.30;46.00;;;;;;6168416;28;80314;-70
2021/05/14 01:36:38;;;;;;;4.07;3.00;;;25.30;46.00;;;;;;6167106;28;81457;-69
2021/05/14 01:39:39;;;;;;;5.63;3.20;;;25.30;46.30;;;;;;6161520;28;80332;-69
2021/05/14 01:42:39;;;;;;;3.88;3.40;;;25.30;46.10;;;;;;6174049;28;81313;-69
2021/05/14 01:45:40;;;;;;;4.80;3.35;;;25.30;46.50;;;;;;6177238;28;80231;-70
2021/05/14 01:48:40;;;;;;;5.88;3.55;;;25.30;46.90;;;;;;6169524;28;80293;-68
2021/05/14 01:51:41;;;;;;;5.47;4.00;;;25.30;46.70;;;;;;6179328;28;80520;-69
2021/05/14 01:54:41;;;;;;;3.72;3.03;;;25.30;46.50;;;;;;6168510;28;80218;-69
2021/05/14 01:57:42;;;;;;;3.97;3.10;;;25.30;46.40;;;;;;6167352;28;80410;-69
2021/05/14 02:00:42;;;;;;;4.47;3.58;;;25.30;46.50;;;;;;6167097;28;80722;-69
2021/05/14 02:03:43;;;;;;;4.47;3.63;;;25.30;46.30;;;;;;6171533;28;81784;-69
2021/05/14 02:06:43;;;;;;;4.18;3.35;;;25.30;46.50;;;;;;6167649;28;81556;-69
2021/05/14 02:09:44;;;;;;;3.45;2.90;;;25.30;46.40;;;;;;6173606;28;83232;-68
2021/05/14 02:12:44;;;;;;;5.07;3.13;;;25.30;46.30;;;;;;6166782;28;81431;-68
2021/05/14 02:15:45;;;;;;;3.58;3.25;;;25.30;46.00;;;;;;6182221;28;80501;-69
2021/05/14 02:18:45;;;;;;;5.10;3.05;;;25.20;45.80;;;;;;6180786;28;80747;-69
2021/05/14 02:21:46;;;;;;;4.43;3.20;;;25.30;45.90;;;;;;6174979;28;80822;-69
2021/05/14 02:24:49;;;;;;;4.63;3.25;;;25.30;45.70;;;;;;6179786;28;80990;-69
2021/05/14 02:27:50;;;;;;;3.70;3.22;;;25.30;46.10;;;;;;6170361;28;80115;-69
2021/05/14 02:30:50;;;;;;;4.25;3.20;;;25.30;46.30;;;;;;6183894;28;80888;-69
2021/05/14 02:33:51;;;;;;;3.17;2.88;;;25.30;46.50;;;;;;6175752;28;83097;-70
2021/05/14 02:36:51;;;;;;;3.25;2.95;;;25.30;46.70;;;;;;6175836;28;80391;-69
2021/05/14 02:39:52;;;;;;;5.00;3.08;;;25.30;46.30;;;;;;6166828;28;80113;-70
2021/05/14 02:42:52;;;;;;;3.22;2.92;;;25.30;46.40;;;;;;6181063;28;80850;-69
2021/05/14 02:45:53;;;;;;;3.97;3.53;;;25.30;46.30;;;;;;6171189;28;80512;-69
2021/05/14 02:48:53;;;;;;;3.92;3.50;;;25.20;46.20;;;;;;6182599;28;82813;-71
2021/05/14 02:51:54;;;;;;;4.22;3.30;;;25.20;46.30;;;;;;6175433;28;81501;-70
2021/05/14 02:54:54;;;;;;;4.93;3.35;;;25.20;46.20;;;;;;6181934;28;81707;-70
2021/05/14 02:57:55;;;;;;;5.28;3.03;;;25.30;45.80;;;;;;6174547;28;80342;-69
2021/05/14 03:00:56;;;;;;;3.15;2.85;;;25.20;45.70;;;;;;6172359;28;80432;-69
2021/05/14 03:03:56;;;;;;;3.90;3.25;;;25.20;45.60;;;;;;6177026;28;80330;-68
2021/05/14 03:06:57;;;;;;;4.43;3.13;;;25.20;45.40;;;;;;6172164;28;80257;-68
2021/05/14 03:09:57;;;;;;;3.40;3.00;;;25.20;45.50;;;;;;6180026;28;80734;-69
2021/05/14 03:12:58;;;;;;;3.55;2.70;;;25.20;45.40;;;;;;6175078;28;80218;-70
2021/05/14 03:15:58;;;;;;;3.15;2.85;;;25.20;45.80;;;;;;6179355;28;81530;-71
2021/05/14 03:18:59;;;;;;;4.35;3.30;;;25.20;45.50;;;;;;6175544;28;82838;-71
2021/05/14 03:22:00;;;;;;;3.42;3.10;;;25.20;45.40;;;;;;6177985;28;82275;-69
2021/05/14 03:25:00;;;;;;;4.63;2.85;;;25.20;45.60;;;;;;6167142;28;81510;-69
2021/05/14 03:28:01;;;;;;;3.30;3.00;;;25.20;45.80;;;;;;6173565;28;81720;-68
2021/05/14 03:31:01;;;;;;;3.53;3.20;;;25.20;45.50;;;;;;6166583;28;80494;-68
2021/05/14 03:34:02;;;;;;;3.28;2.97;;;25.20;45.80;;;;;;6170954;28;80131;-69
2021/05/14 03:37:02;;;;;;;3.17;2.88;;;25.20;46.00;;;;;;6173168;28;81837;-69
2021/05/14 03:40:14;;;;;;;4.03;3.15;;;25.30;45.50;;;;;;6174761;28;81861;-69
2021/05/14 03:43:14;;;;;;;3.88;3.22;;;25.20;45.70;;;;;;6173779;28;85631;-69
2021/05/14 03:46:15;;;;;;;4.45;3.22;;;25.20;45.80;;;;;;6169421;28;80736;-68
2021/05/14 03:49:15;;;;;;;3.67;3.20;;;25.20;45.50;;;;;;6164063;28;80462;-67
2021/05/14 03:52:16;;;;;;;4.97;3.15;;;25.30;45.60;;;;;;6173515;28;80579;-69
2021/05/14 03:55:17;;;;;;;3.35;2.85;;;25.30;45.50;;;;;;6175901;28;80527;-69
2021/05/14 03:58:17;;;;;;;4.47;3.47;;;25.20;45.40;;;;;;6166338;28;80624;-70
2021/05/14 04:01:20;;;;;;;4.13;3.72;;;25.20;46.30;;;;;;6177245;28;80276;-70
2021/05/14 04:04:22;;;;;;;4.22;3.40;;;25.20;46.00;;;;;;6172207;28;80393;-69
2021/05/14 04:07:23;;;;;;;3.53;3.15;;;25.20;46.30;;;;;;6173527;28;81340;-68
2021/05/14 04:16:47;;;;;;;7.40;4.05;;;25.20;46.40;;;;;;6176425;28;80429;-69
2021/05/14 04:19:48;;;;;;;4.97;3.67;;;25.20;46.10;;;;;;6174383;28;81539;-70
2021/05/14 04:22:50;;;;;;;5.97;3.97;;;25.20;45.80;;;;;;6173092;28;81590;-69
2021/05/14 04:25:51;;;;;;;4.15;3.75;;;25.20;45.80;;;;;;6176615;28;80214;-66
2021/05/14 04:28:51;;;;;;;5.13;4.00;;;25.20;45.40;;;;;;6175873;28;80372;-67
2021/05/14 04:31:52;;;;;;;5.65;3.90;;;25.20;46.20;;;;;;6177281;28;81934;-72
2021/05/14 04:34:54;;;;;;;9.65;5.97;;;25.20;45.80;;;;;;6176334;28;80649;-70
2021/05/14 04:37:54;;;;;;;9.30;5.70;;;25.20;46.00;;;;;;6188031;28;85019;-69
2021/05/14 04:40:55;;;;;;;9.98;5.78;;;25.20;45.70;;;;;;6169300;28;81456;-71
2021/05/14 04:43:55;;;;;;;6.80;5.10;;;25.20;45.90;;;;;;6172077;28;80957;-73
2021/05/14 04:46:56;;;;;;;7.40;5.13;;;25.20;45.90;;;;;;6175291;28;83492;-69
2021/05/14 04:49:56;;;;;;;8.77;5.82;;;25.20;46.10;;;;;;6180716;28;80590;-69
2021/05/14 04:52:57;;;;;;;8.85;6.50;;;25.20;45.80;;;;;;6167635;28;80423;-73
2021/05/14 04:55:57;;;;;;;10.30;6.70;;;25.20;46.20;;;;;;6178027;28;80864;-71
2021/05/14 04:58:58;;;;;;;7.00;5.80;;;25.20;46.10;;;;;;6170048;28;83066;-71
2021/05/14 05:01:58;;;;;;;15.18;6.00;;;25.20;46.30;;;;;;6171174;28;80536;-72
2021/05/14 05:04:59;;;;;;;10.55;6.70;;;25.20;46.40;;;;;;6171068;28;80533;-71
2021/05/14 05:07:59;;;;;;;8.23;6.63;;;25.30;46.30;;;;;;6176238;28;80784;-71
2021/05/14 05:11:00;;;;;;;9.48;7.20;;;25.20;46.20;;;;;;6164637;28;82082;-73
2021/05/14 05:14:00;;;;;;;10.48;6.97;;;25.20;46.50;;;;;;6177044;28;81394;-75
2021/05/14 05:17:01;;;;;;;12.98;7.20;;;25.20;46.30;;;;;;6171522;28;80819;-75
2021/05/14 05:20:02;;;;;;;12.73;7.72;;;25.20;46.70;;;;;;6174207;28;80336;-73
2021/05/14 05:23:02;;;;;;;13.77;8.15;;;25.30;47.10;;;;;;6173740;28;81636;-73
2021/05/14 05:26:03;;;;;;;11.15;7.15;;;25.30;46.90;;;;;;6166756;28;80704;-75
2021/05/14 05:29:03;;;;;;;12.95;7.45;;;25.30;46.90;;;;;;6168352;28;81272;-71
2021/05/14 05:32:04;;;;;;;13.00;7.80;;;25.30;47.30;;;;;;6165276;28;80728;-73
2021/05/14 05:35:04;;;;;;;10.95;8.30;;;25.40;47.20;;;;;;6177811;28;82878;-74
2021/05/14 05:38:05;;;;;;;11.40;7.95;;;25.30;47.10;;;;;;6172409;28;81502;-68
2021/05/14 05:41:05;;;;;;;13.52;9.13;;;25.40;47.20;;;;;;6190298;28;82070;-70
2021/05/14 05:44:06;;;;;;;15.68;7.95;;;25.40;46.90;;;;;;6178398;28;80111;-67
2021/05/14 05:47:06;;;;;;;12.52;8.20;;;25.40;46.80;;;;;;6175405;28;81660;-71
2021/05/14 05:50:07;;;;;;;12.48;8.85;;;25.40;46.60;;;;;;6174224;28;81313;-73
2021/05/14 05:53:08;;;;;;;18.88;8.88;;;25.40;46.40;;;;;;6173785;28;81007;-75
2021/05/14 05:56:09;;;;;;;10.57;8.02;;;25.30;46.70;;;;;;6176855;28;81346;-70
2021/05/14 05:59:12;;;;;;;11.25;8.20;;;25.30;46.50;;;;;;6174674;28;84354;-70
2021/05/14 06:02:12;;;;;;;11.90;9.18;;;25.30;46.70;;;;;;6178376;28;80745;-71
2021/05/14 06:05:14;;;;;;;16.05;11.20;;;25.30;46.30;;;;;;6169779;28;81758;-71
2021/05/14 06:08:14;;;;;;;17.40;10.77;;;25.30;45.70;;;;;;6176072;28;85589;-71
2021/05/14 06:11:15;;;;;;;16.70;10.48;;;25.30;45.80;;;;;;6175493;28;84109;-70
2021/05/14 06:14:15;;;;;;;13.30;10.30;;;25.30;45.80;;;;;;6163602;28;83725;-72
2021/05/14 06:17:16;;;;;;;15.68;10.27;;;25.30;45.80;;;;;;6174782;28;84190;-71
2021/05/14 06:20:19;;;;;;;16.92;11.07;;;25.30;45.70;;;;;;6177268;28;82945;-72
2021/05/14 06:23:19;;;;;;;13.88;9.52;;;25.30;45.90;;;;;;6166354;28;82646;-71
2021/05/14 06:26:20;;;;;;;16.50;11.68;;;25.30;46.20;;;;;;6169036;28;83547;-71
2021/05/14 06:29:22;;;;;;;16.58;10.48;;;25.30;45.90;;;;;;6165525;28;82950;-72
2021/05/14 06:32:22;;;;;;;17.33;10.90;;;25.20;46.00;;;;;;6170032;28;83155;-71
2021/05/14 06:35:24;;;;;;;18.25;11.40;;;25.20;46.00;;;;;;6171134;28;83215;-71
2021/05/14 06:38:25;;;;;;;16.02;11.45;;;25.20;45.90;;;;;;6179066;28;83282;-71
2021/05/14 06:41:26;;;;;;;16.77;10.75;;;25.20;46.20;;;;;;6170657;28;83014;-71
2021/05/14 06:44:28;;;;;;;16.88;11.40;;;25.20;46.00;;;;;;6172277;28;82962;-71
2021/05/14 06:47:29;;;;;;;19.05;11.52;;;25.20;46.10;;;;;;6172381;28;83376;-72
2021/05/14 06:50:29;;;;;;;22.75;12.65;;;25.20;46.00;;;;;;6177864;28;85263;-69
2021/05/14 06:53:30;;;;;;;20.77;12.95;;;25.10;45.60;;;;;;6170455;28;84152;-68
2021/05/14 06:56:30;;;;;;;24.55;14.07;;;25.10;45.30;;;;;;6178002;28;83068;-69
2021/05/14 06:59:31;;;;;;;19.23;12.68;;;25.10;45.30;;;;;;6173818;28;82697;-69
2021/05/14 07:02:31;;;;;;;18.58;11.95;;;25.00;45.40;;;;;;6173002;28;82875;-65
2021/05/14 07:05:32;;;;;;;24.55;12.73;;;25.00;45.50;;;;;;6173572;28;83815;-65
2021/05/14 07:08:32;;;;;;;21.60;13.38;;;24.90;45.80;;;;;;6166313;28;84097;-66
2021/05/14 07:11:33;;;;;;;21.13;13.68;;;24.90;45.90;;;;;;6162923;28;83917;-68
2021/05/14 07:14:33;;;;;;;20.88;13.35;;;24.90;45.80;;;;;;6171482;28;85188;-67
2021/05/14 07:17:34;;;;;;;18.65;10.95;;;24.90;46.00;;;;;;6177564;28;83405;-67
2021/05/14 07:20:36;;;;;;;20.02;10.95;;;24.90;46.00;;;;;;6176591;28;86546;-66
2021/05/14 07:23:37;;;;;;;16.83;11.38;;;24.90;46.30;;;;;;6178939;28;83128;-66
2021/05/14 07:26:37;;;;;;;14.82;10.00;;;24.90;45.90;;;;;;6175270;28;83534;-67
2021/05/14 07:29:38;;;;;;;15.30;10.48;;;24.90;46.10;;;;;;6173858;28;82993;-66
2021/05/14 07:32:38;;;;;;;17.85;10.35;;;24.90;46.10;;;;;;6167379;28;84942;-66
2021/05/14 07:35:39;;;;;;;12.20;8.88;;;24.90;46.00;;;;;;6177104;28;83245;-67
2021/05/14 07:38:39;;;;;;;16.23;10.05;;;24.90;46.00;;;;;;6166787;28;85642;-67
2021/05/14 07:41:40;;;;;;;18.25;10.13;;;24.90;46.00;;;;;;6171979;28;82612;-68
2021/05/14 07:44:42;;;;;;;15.82;10.85;;;24.90;46.00;;;;;;6176701;28;84191;-67
2021/05/14 07:47:42;;;;;;;17.52;11.18;;;24.90;46.10;;;;;;6171347;28;83122;-67
2021/05/14 07:50:43;;;;;;;17.35;11.27;;;24.90;46.10;;;;;;6174651;28;83192;-67
2021/05/14 07:53:43;;;;;;;17.95;11.45;;;24.80;46.10;;;;;;6175889;28;83203;-68
2021/05/14 07:56:44;;;;;;;17.15;11.23;;;24.70;46.10;;;;;;6176314;28;83468;-69
2021/05/14 07:59:44;;;;;;;21.25;11.43;;;24.70;46.40;;;;;;6175273;28;83962;-66
2021/05/14 08:02:45;;;;;;;14.90;11.50;;;24.70;46.70;;;;;;6172669;28;83068;-67
2021/05/14 08:05:46;;;;;;;17.00;10.50;;;24.80;46.60;;;;;;6176824;28;86316;-66
2021/05/14 08:08:47;;;;;;;17.13;11.20;;;24.80;46.70;;;;;;6176304;28;83923;-67
2021/05/14 08:11:49;;;;;;;16.10;11.00;;;24.80;47.00;;;;;;6177632;28;84278;-66
2021/05/14 08:14:49;;;;;;;17.98;11.32;;;24.80;47.00;;;;;;6166425;28;83506;-67
2021/05/14 08:17:50;;;;;;;19.15;11.63;;;24.80;46.50;;;;;;6169051;28;83513;-67
2021/05/14 08:20:50;;;;;;;82.97;28.25;;;24.80;47.00;;;;;;6168854;28;83504;-66
2021/05/14 08:23:51;;;;;;;437.63;136.55;;;24.80;47.00;;;;;;6170233;28;83231;-68
2021/05/14 08:26:51;;;;;;;700.38;275.13;;;24.80;47.00;;;;;;6161441;28;85232;-66
2021/05/14 08:29:52;;;;;;;851.55;346.58;;;24.80;47.10;;;;;;6166159;28;85759;-67
2021/05/14 08:32:53;;;;;;;899.13;364.20;;;24.80;47.10;;;;;;6158524;28;85967;-68
2021/05/14 08:35:53;;;;;;;784.95;322.60;;;24.80;47.10;;;;;;6164060;28;85550;-68
2021/05/14 08:38:53;;;;;;;686.40;260.63;;;24.80;46.90;;;;;;6164747;28;85316;-69
2021/05/14 08:41:54;;;;;;;550.90;203.40;;;24.80;46.90;;;;;;6163840;28;86570;-65
2021/05/14 08:44:55;;;;;;;487.00;167.10;;;24.80;47.00;;;;;;6162628;28;85913;-67
2021/05/14 08:47:56;;;;;;;388.42;140.23;;;24.80;47.10;;;;;;6169971;28;85610;-68
2021/05/14 08:50:56;;;;;;;343.08;119.18;;;24.80;46.80;;;;;;6169688;28;85615;-69
2021/05/14 08:54:06;;;;;;;294.40;103.00;;;24.80;47.00;;;;;;6168711;28;85907;-69
2021/05/14 08:57:06;;;;;;;236.48;86.10;;;24.80;47.40;;;;;;6171348;28;85510;-68
2021/05/14 09:00:07;;;;;;;207.27;77.40;;;24.90;47.00;;;;;;6160977;28;86722;-68
2021/05/14 09:03:07;;;;;;;168.32;65.40;;;24.90;47.20;;;;;;6173411;28;83419;-68
2021/05/14 09:06:08;;;;;;;141.38;56.10;;;24.90;47.00;;;;;;6172744;28;83081;-67
2021/05/14 09:09:08;;;;;;;128.32;48.30;;;24.90;47.10;;;;;;6165078;28;83007;-68
2021/05/14 09:12:09;;;;;;;108.03;45.65;;;24.90;47.50;;;;;;6171178;28;84267;-69
2021/05/14 09:15:09;;;;;;;100.63;38.58;;;24.90;47.10;;;;;;6174843;28;85016;-69
2021/05/14 09:18:10;;;;;;;91.00;36.10;;;24.90;47.00;;;;;;6170019;28;85032;-68
2021/05/14 09:21:10;;;;;;;79.53;32.67;;;24.90;47.10;;;;;;6163673;28;83481;-68
2021/05/14 09:24:11;;;;;;;77.15;29.95;;;24.90;47.00;;;;;;6162780;28;84065;-67
2021/05/14 09:27:12;;;;;;;64.10;28.52;;;24.90;47.20;;;;;;6169583;28;83024;-69
2021/05/14 09:30:13;;;;;;;56.88;26.67;;;24.90;47.20;;;;;;6173261;28;83894;-71
2021/05/14 09:33:13;;;;;;;53.72;24.38;;;24.90;47.10;;;;;;6170911;28;83468;-69
2021/05/14 09:36:14;;;;;;;52.22;23.58;;;24.90;47.00;;;;;;6176531;28;83218;-67
2021/05/14 09:39:15;;;;;;;46.85;22.45;;;24.90;47.00;;;;;;6174155;28;83064;-69
2021/05/14 09:42:15;;;;;;;44.00;22.67;;;24.90;47.00;;;;;;6170122;28;84140;-68
2021/05/14 09:45:16;;;;;;;39.08;21.17;;;24.90;46.90;;;;;;6170646;28;83017;-68
2021/05/14 09:48:21;;;;;;;39.15;20.02;;;24.90;46.80;;;;;;6172749;28;83520;-69
2021/05/14 09:51:22;;;;;;;33.75;18.60;;;25.00;47.30;;;;;;6168132;28;84612;-70
2021/05/14 09:54:22;;;;;;;36.60;19.98;;;25.00;47.30;;;;;;6169602;28;84036;-70
2021/05/14 10:00:30;;;;;;;31.00;18.45;;;25.10;48.00;;;;;;6172909;28;83385;-69
2021/05/14 10:03:31;;;;;;;30.92;17.30;;;25.10;48.40;;;;;;6175080;28;84670;-72
2021/05/14 10:06:32;;;;;;;35.20;19.73;;;25.10;49.00;;;;;;6171305;28;83131;-70
2021/05/14 10:09:32;;;;;;;29.02;17.45;;;25.10;50.30;;;;;;6165002;28;84011;-70
2021/05/14 10:12:33;;;;;;;33.50;19.00;;;25.20;50.40;;;;;;6169735;28;83121;-69
2021/05/14 10:15:34;;;;;;;29.35;17.85;;;25.30;50.70;;;;;;6163242;28;82869;-69
2021/05/14 10:18:34;;;;;;;36.88;18.20;;;25.30;50.50;;;;;;6174518;28;85973;-70
2021/05/14 10:21:35;;;;;;;31.05;17.40;;;25.30;52.60;;;;;;6169598;28;84568;-71
2021/05/14 10:24:35;;;;;;;29.27;17.05;;;25.30;50.00;;;;;;6172836;28;85599;-70
2021/05/14 10:27:36;;;;;;;26.73;16.63;;;25.30;49.80;;;;;;6175523;28;82947;-69
2021/05/14 10:30:36;;;;;;;25.10;16.00;;;25.40;49.40;;;;;;6174732;28;83446;-68
2021/05/14 10:33:37;;;;;;;25.92;15.65;;;25.40;49.60;;;;;;6176620;28;83734;-70
2021/05/14 10:36:37;;;;;;;25.80;15.23;;;25.30;49.20;;;;;;6176179;28;83222;-69
2021/05/14 10:39:38;;;;;;;21.75;14.18;;;25.40;49.70;;;;;;6169527;28;83275;-69
2021/05/14 10:42:39;;;;;;;24.33;14.50;;;25.40;49.50;;;;;;6175139;28;82998;-70
2021/05/14 10:45:40;;;;;;;18.17;12.68;;;25.40;49.50;;;;;;6165590;28;89084;-70
2021/05/14 10:48:40;;;;;;;25.10;15.10;;;25.30;48.90;;;;;;6175739;28;83061;-69
2021/05/14 10:51:41;;;;;;;18.40;14.23;;;25.40;49.10;;;;;;6164357;28;83048;-71
2021/05/14 10:54:42;;;;;;;20.00;13.57;;;25.40;48.50;;;;;;6173951;28;82846;-69
2021/05/14 10:57:42;;;;;;;19.75;13.65;;;25.40;48.20;;;;;;6172913;28;84865;-69
2021/05/14 11:00:43;;;;;;;20.05;14.60;;;25.40;48.50;;;;;;6176307;28;83267;-66
2021/05/14 11:03:44;;;;;;;24.42;13.68;;;25.40;47.50;;;;;;6176930;28;83004;-67
2021/05/14 11:06:44;;;;;;;22.45;14.13;;;25.40;46.90;;;;;;6169590;28;83109;-70
2021/05/14 11:09:45;;;;;;;20.05;13.07;;;25.40;46.80;;;;;;6175943;28;83170;-70
2021/05/14 11:12:45;;;;;;;20.23;13.35;;;25.40;46.60;;;;;;6174682;28;84420;-70
2021/05/14 11:15:46;;;;;;;20.77;14.02;;;25.40;46.40;;;;;;6165989;28;83872;-69
2021/05/14 11:18:46;;;;;;;18.63;13.48;;;25.30;46.80;;;;;;6172558;28;83396;-69
2021/05/14 11:21:47;;;;;;;18.00;13.35;;;25.30;47.40;;;;;;6175568;28;84555;-71
2021/05/14 11:24:48;;;;;;;19.23;13.00;;;25.30;47.00;;;;;;6176545;28;83259;-71
2021/05/14 11:27:51;;;;;;;20.95;14.68;;;25.40;47.10;;;;;;6175301;28;83067;-70
2021/05/14 11:30:52;;;;;;;18.77;14.30;;;25.40;47.80;;;;;;6175716;28;85146;-70
2021/05/14 11:33:52;;;;;;;18.90;13.30;;;25.40;47.40;;;;;;6175503;28;83092;-71
2021/05/14 11:36:53;;;;;;;18.90;13.38;;;25.40;47.00;;;;;;6176419;28;83039;-72
2021/05/14 11:39:53;;;;;;;16.05;12.05;;;25.40;47.00;;;;;;6173131;28;83401;-71
2021/05/14 11:42:54;;;;;;;18.98;12.80;;;25.40;47.00;;;;;;6169650;27;82978;-72
2021/05/14 11:45:55;;;;;;;14.27;11.00;;;25.40;46.50;;;;;;6174870;28;84133;-71
2021/05/14 11:48:55;;;;;;;16.80;10.77;;;25.40;46.00;;;;;;6173279;27;83101;-71
2021/05/14 11:51:56;;;;;;;16.40;11.23;;;25.40;46.00;;;;;;6170218;28;84471;-71
2021/05/14 11:54:56;;;;;;;14.32;10.23;;;25.40;45.70;;;;;;6175919;28;82846;-70
2021/05/14 11:57:57;;;;;;;15.23;9.85;;;25.40;45.60;;;;;;6175393;28;83103;-70
2021/05/14 12:00:57;;;;;;;13.48;10.90;;;25.40;45.10;;;;;;6176485;28;83489;-71
2021/05/14 12:03:58;;;;;;;15.40;10.57;;;25.40;45.10;;;;;;6172700;28;83320;-71
2021/05/14 12:06:58;;;;;;;11.63;9.57;;;25.40;44.90;;;;;;6170985;28;82892;-70
2021/05/14 12:09:59;;;;;;;11.88;9.18;;;25.40;45.10;;;;;;6177635;27;83560;-69
2021/05/14 12:12:59;;;;;;;13.25;9.27;;;25.40;44.80;;;;;;6178676;28;81240;-68
2021/05/14 12:16:00;;;;;;;12.55;9.57;;;25.40;44.80;;;;;;6179079;28;80637;-67
2021/05/14 12:19:02;;;;;;;10.35;8.25;;;25.30;44.60;;;;;;6175033;28;81087;-71
2021/05/14 12:22:02;;;;;;;17.08;9.75;;;25.30;44.60;;;;;;6179675;28;81055;-69
2021/05/14 12:25:03;;;;;;;13.50;9.00;;;25.40;44.80;;;;;;6174538;28;80482;-67
2021/05/14 12:28:03;;;;;;;12.57;8.23;;;25.30;44.70;;;;;;6166664;28;80311;-68
2021/05/14 12:31:04;;;;;;;12.55;9.55;;;25.30;45.00;;;;;;6169346;28;80224;-66
2021/05/14 12:34:04;;;;;;;12.27;9.45;;;25.30;44.70;;;;;;6178673;28;84110;-67
2021/05/14 12:37:05;;;;;;;13.18;8.73;;;25.30;44.60;;;;;;6178440;28;80891;-67
2021/05/14 12:40:05;;;;;;;13.30;8.93;;;25.30;44.50;;;;;;6174365;28;83145;-67
2021/05/14 12:43:06;;;;;;;10.32;8.07;;;25.30;44.50;;;;;;6166390;28;81554;-67
2021/05/14 12:46:06;;;;;;;10.57;7.95;;;25.30;44.50;;;;;;6167020;28;80244;-66
2021/05/14 12:49:07;;;;;;;8.82;7.05;;;25.30;44.30;;;;;;6166235;28;81084;-66
2021/05/14 12:52:10;;;;;;;8.15;6.88;;;25.30;44.00;;;;;;6173523;28;81062;-64
2021/05/14 12:55:11;;;;;;;14.50;7.28;;;25.30;44.10;;;;;;6175610;28;84809;-67
2021/05/14 12:58:11;;;;;;;11.32;6.93;;;25.40;44.20;;;;;;6176536;28;80254;-67
2021/05/14 13:01:12;;;;;;;8.75;6.85;;;25.40;44.20;;;;;;6171639;28;82012;-68
2021/05/14 13:04:13;;;;;;;10.38;7.07;;;25.40;44.20;;;;;;6175236;28;80916;-67
2021/05/14 13:07:13;;;;;;;13.93;7.13;;;25.40;44.20;;;;;;6175877;28;81657;-67
2021/05/14 13:10:14;;;;;;;7.93;6.93;;;25.40;44.50;;;;;;6174503;28;80345;-67
2021/05/14 13:13:15;;;;;;;8.07;6.20;;;25.40;44.30;;;;;;6178532;28;80411;-68
2021/05/14 13:16:15;;;;;;;10.18;6.85;;;25.40;44.00;;;;;;6176900;28;80495;-66
2021/05/14 13:19:16;;;;;;;8.85;6.43;;;25.40;44.20;;;;;;6177184;28;80592;-66
2021/05/14 13:22:16;;;;;;;9.77;5.80;;;25.40;44.50;;;;;;6177069;28;80558;-65
2021/05/14 13:25:17;;;;;;;7.53;5.72;;;25.40;44.50;;;;;;6165883;28;80791;-66
2021/05/14 13:28:17;;;;;;;11.18;5.35;;;25.40;45.20;;;;;;6167524;28;81073;-66
2021/05/14 13:31:23;;;;;;;6.70;5.63;;;25.40;45.40;;;;;;6176531;28;80752;-67
2021/05/14 13:34:23;;;;;;;15.02;5.85;;;25.40;45.70;;;;;;6166875;28;83017;-67
2021/05/14 13:37:24;;;;;;;7.10;5.68;;;25.40;45.40;;;;;;6162946;28;80135;-66
2021/05/14 13:40:24;;;;;;;10.07;6.22;;;25.40;45.10;;;;;;6165527;28;82402;-67
2021/05/14 13:43:25;;;;;;;9.15;5.97;;;25.50;45.00;;;;;;6167769;28;80404;-68
2021/05/14 13:46:25;;;;;;;6.07;4.88;;;25.50;45.00;;;;;;6178170;28;80857;-67
2021/05/14 13:49:26;;;;;;;7.22;4.95;;;25.50;44.60;;;;;;6177985;28;80565;-67
2021/05/14 13:52:26;;;;;;;5.57;4.43;;;25.50;44.10;;;;;;6178485;28;80432;-67
2021/05/14 13:55:27;;;;;;;7.40;5.43;;;25.50;44.30;;;;;;6180038;28;81595;-67
2021/05/14 13:58:27;;;;;;;6.90;5.38;;;25.50;44.20;;;;;;6169463;28;80489;-67
2021/05/14 14:01:28;;;;;;;8.27;5.57;;;25.40;44.10;;;;;;6174286;28;81118;-67
2021/05/14 14:04:28;;;;;;;10.80;5.60;;;25.40;44.20;;;;;;6178438;28;80424;-68
2021/05/14 14:07:29;;;;;;;9.27;5.20;;;25.40;44.30;;;;;;6180364;28;80736;-68
2021/05/14 14:10:29;;;;;;;7.47;4.82;;;25.40;44.20;;;;;;6168273;28;82348;-67
2021/05/14 14:13:30;;;;;;;6.13;5.15;;;25.40;44.10;;;;;;6172366;28;80602;-66
2021/05/14 14:16:30;;;;;;;8.73;4.60;;;25.40;44.10;;;;;;6174771;28;80526;-68
2021/05/14 14:19:31;;;;;;;9.13;4.70;;;25.40;44.40;;;;;;6177770;28;80925;-68
2021/05/14 14:22:32;;;;;;;13.82;5.43;;;25.40;44.20;;;;;;6177098;28;80323;-68
2021/05/14 14:25:32;;;;;;;8.10;5.35;;;25.40;44.50;;;;;;6178192;28;80993;-65
2021/05/14 14:28:33;;;;;;;8.77;6.07;;;25.40;44.90;;;;;;6173782;28;81383;-67
2021/05/14 14:31:33;;;;;;;7.40;6.07;;;25.40;44.40;;;;;;6175434;28;80367;-68
2021/05/14 14:34:34;;;;;;;8.48;6.68;;;25.40;44.10;;;;;;6175077;28;83369;-66
2021/05/14 14:37:34;;;;;;;10.80;8.18;;;25.40;43.50;;;;;;6169060;28;81505;-66
2021/05/14 14:40:35;;;;;;;15.93;7.97;;;25.40;43.90;;;;;;6173917;28;81676;-67
2021/05/14 14:43:35;;;;;;;12.00;8.50;;;25.40;43.50;;;;;;6177898;28;80947;-67
2021/05/14 14:46:36;;;;;;;14.15;9.23;;;25.40;43.30;;;;;;6178147;28;80472;-67
2021/05/14 14:49:36;;;;;;;13.32;8.27;;;25.30;43.10;;;;;;6176257;28;80210;-66
2021/05/14 14:52:38;;;;;;;14.45;9.65;;;25.30;43.30;;;;;;6178453;28;80847;-66
2021/05/14 14:55:39;;;;;;;14.70;9.48;;;25.30;43.20;;;;;;6174766;28;82314;-67
2021/05/14 14:58:39;;;;;;;13.30;9.15;;;25.30;43.00;;;;;;6173543;28;80653;-67
2021/05/14 15:01:40;;;;;;;17.27;9.80;;;25.30;43.40;;;;;;6180455;28;81319;-66
2021/05/14 15:04:40;;;;;;;14.48;10.18;;;25.30;43.10;;;;;;6178254;28;80775;-70
2021/05/14 15:07:41;;;;;;;17.63;9.93;;;25.40;43.40;;;;;;6175386;28;82979;-68
2021/05/14 15:10:41;;;;;;;13.80;10.05;;;25.40;43.30;;;;;;6173479;28;82902;-68
2021/05/14 15:13:42;;;;;;;14.50;10.55;;;25.40;43.50;;;;;;6176957;28;86592;-67
2021/05/14 15:16:44;;;;;;;17.65;11.63;;;25.40;43.50;;;;;;6168089;28;83238;-68
2021/05/14 15:19:45;;;;;;;20.42;12.80;;;25.30;43.10;;;;;;6171080;28;85133;-68
2021/05/14 15:22:45;;;;;;;15.45;10.98;;;25.30;43.30;;;;;;6178703;28;83147;-68
2021/05/14 15:25:46;;;;;;;15.82;11.02;;;25.30;43.30;;;;;;6175532;28;84020;-68
2021/05/14 15:28:46;;;;;;;16.70;11.55;;;25.30;43.30;;;;;;6173773;28;83178;-68
2021/05/14 15:31:47;;;;;;;22.48;12.50;;;25.30;43.20;;;;;;6173076;28;83342;-68
2021/05/14 15:34:47;;;;;;;21.70;12.45;;;25.30;43.20;;;;;;6176770;28;86204;-68